sensor_id;sensor_type;location;lat;lon;timestamp;P1;durP1;ratioP1;P2;durP2;ratioP2
19971;SDS011;10147;16.402;102.848;2022-12-22T00:02:26;59.78;;;47.25;;
19971;SDS011;10147;16.402;102.848;2022-12-22T00:05:18;68.43;;;55.25;;
19971;SDS011;10147;16.402;102.848;2022-12-22T00:08:09;62.75;;;52.42;;
19971;SDS011;10147;16.402;102.848;2022-12-22T00:10:59;68.00;;;50.20;;
19971;SDS011;10147;16.402;102.848;2022-12-22T00:13:49;70.97;;;51.45;;
19971;SDS011;10147;16.402;102.848;2022-12-22T00:16:40;66.43;;;50.80;;
19971;SDS011;10147;16.402;102.848;2022-12-22T00:19:30;713.20;;;532.53;;
19971;SDS011;10147;16.402;102.848;2022-12-22T00:22:21;667.00;;;511.15;;
19971;SDS011;10147;16.402;102.848;2022-12-22T00:25:12;80.20;;;64.05;;
19971;SDS011;10147;16.402;102.848;2022-12-22T00:28:02;64.07;;;51.30;;
19971;SDS011;10147;16.402;102.848;2022-12-22T00:30:58;63.58;;;44.55;;
19971;SDS011;10147;16.402;102.848;2022-12-22T00:33:49;57.70;;;42.60;;
19971;SDS011;10147;16.402;102.848;2022-12-22T00:36:38;58.58;;;41.97;;
19971;SDS011;10147;16.402;102.848;2022-12-22T00:39:29;62.00;;;47.03;;
19971;SDS011;10147;16.402;102.848;2022-12-22T00:42:18;65.78;;;44.28;;
19971;SDS011;10147;16.402;102.848;2022-12-22T00:45:09;65.50;;;46.75;;
19971;SDS011;10147;16.402;102.848;2022-12-22T00:47:59;77.72;;;54.20;;
19971;SDS011;10147;16.402;102.848;2022-12-22T00:50:49;67.35;;;50.55;;
19971;SDS011;10147;16.402;102.848;2022-12-22T00:53:39;63.97;;;46.28;;
19971;SDS011;10147;16.402;102.848;2022-12-22T00:56:29;54.05;;;41.45;;
19971;SDS011;10147;16.402;102.848;2022-12-22T00:59:19;46.90;;;35.50;;
19971;SDS011;10147;16.402;102.848;2022-12-22T01:02:09;52.10;;;35.42;;
19971;SDS011;10147;16.402;102.848;2022-12-22T01:04:59;59.95;;;37.65;;
19971;SDS011;10147;16.402;102.848;2022-12-22T01:07:49;50.95;;;37.35;;
19971;SDS011;10147;16.402;102.848;2022-12-22T01:10:39;52.47;;;36.35;;
19971;SDS011;10147;16.402;102.848;2022-12-22T01:13:29;48.67;;;34.17;;
19971;SDS011;10147;16.402;102.848;2022-12-22T01:16:19;44.00;;;32.25;;
19971;SDS011;10147;16.402;102.848;2022-12-22T01:19:09;42.83;;;30.90;;
19971;SDS011;10147;16.402;102.848;2022-12-22T01:21:59;43.78;;;30.98;;
19971;SDS011;10147;16.402;102.848;2022-12-22T01:24:49;47.72;;;30.90;;
19971;SDS011;10147;16.402;102.848;2022-12-22T01:27:39;40.80;;;31.08;;
19971;SDS011;10147;16.402;102.848;2022-12-22T01:30:29;43.90;;;31.50;;
19971;SDS011;10147;16.402;102.848;2022-12-22T01:33:19;44.15;;;30.48;;
19971;SDS011;10147;16.402;102.848;2022-12-22T01:36:09;44.65;;;32.13;;
19971;SDS011;10147;16.402;102.848;2022-12-22T01:38:59;45.90;;;32.03;;
19971;SDS011;10147;16.402;102.848;2022-12-22T01:41:49;40.78;;;30.02;;
19971;SDS011;10147;16.402;102.848;2022-12-22T01:44:38;39.80;;;30.00;;
19971;SDS011;10147;16.402;102.848;2022-12-22T01:47:30;38.20;;;28.90;;
19971;SDS011;10147;16.402;102.848;2022-12-22T01:50:23;37.60;;;29.13;;
19971;SDS011;10147;16.402;102.848;2022-12-22T01:53:15;43.28;;;28.20;;
19971;SDS011;10147;16.402;102.848;2022-12-22T01:56:06;39.22;;;28.13;;
19971;SDS011;10147;16.402;102.848;2022-12-22T01:58:57;38.45;;;27.10;;
19971;SDS011;10147;16.402;102.848;2022-12-22T02:01:47;31.80;;;23.42;;
19971;SDS011;10147;16.402;102.848;2022-12-22T02:04:39;32.72;;;25.08;;
19971;SDS011;10147;16.402;102.848;2022-12-22T02:17:01;32.70;;;22.55;;
19971;SDS011;10147;16.402;102.848;2022-12-22T02:23:24;31.20;;;22.90;;
19971;SDS011;10147;16.402;102.848;2022-12-22T02:26:30;34.58;;;26.35;;
19971;SDS011;10147;16.402;102.848;2022-12-22T02:29:32;30.42;;;22.90;;
19971;SDS011;10147;16.402;102.848;2022-12-22T02:32:23;34.33;;;23.95;;
19971;SDS011;10147;16.402;102.848;2022-12-22T02:35:14;28.45;;;21.88;;
19971;SDS011;10147;16.402;102.848;2022-12-22T02:38:16;31.20;;;22.02;;
19971;SDS011;10147;16.402;102.848;2022-12-22T02:41:19;30.75;;;20.70;;
19971;SDS011;10147;16.402;102.848;2022-12-22T02:50:44;29.55;;;22.25;;
19971;SDS011;10147;16.402;102.848;2022-12-22T02:53:36;29.73;;;22.35;;
19971;SDS011;10147;16.402;102.848;2022-12-22T02:56:27;30.45;;;21.48;;
19971;SDS011;10147;16.402;102.848;2022-12-22T02:59:17;30.80;;;21.13;;
19971;SDS011;10147;16.402;102.848;2022-12-22T03:02:07;30.05;;;22.73;;
19971;SDS011;10147;16.402;102.848;2022-12-22T03:04:57;27.40;;;21.33;;
19971;SDS011;10147;16.402;102.848;2022-12-22T03:07:47;29.05;;;21.50;;
19971;SDS011;10147;16.402;102.848;2022-12-22T03:10:37;30.63;;;22.17;;
19971;SDS011;10147;16.402;102.848;2022-12-22T03:13:27;27.45;;;22.27;;
19971;SDS011;10147;16.402;102.848;2022-12-22T03:16:17;33.55;;;23.77;;
19971;SDS011;10147;16.402;102.848;2022-12-22T03:19:07;29.27;;;22.85;;
19971;SDS011;10147;16.402;102.848;2022-12-22T03:21:57;28.15;;;22.27;;
19971;SDS011;10147;16.402;102.848;2022-12-22T03:24:47;26.83;;;20.58;;
19971;SDS011;10147;16.402;102.848;2022-12-22T03:27:37;30.60;;;21.25;;
19971;SDS011;10147;16.402;102.848;2022-12-22T03:30:07;27.95;;;21.52;;
19971;SDS011;10147;16.402;102.848;2022-12-22T03:32:38;26.20;;;21.73;;
19971;SDS011;10147;16.402;102.848;2022-12-22T03:35:08;27.05;;;20.67;;
19971;SDS011;10147;16.402;102.848;2022-12-22T03:37:38;27.80;;;21.27;;
19971;SDS011;10147;16.402;102.848;2022-12-22T03:40:09;27.55;;;21.75;;
19971;SDS011;10147;16.402;102.848;2022-12-22T03:42:39;27.05;;;21.92;;
19971;SDS011;10147;16.402;102.848;2022-12-22T03:45:29;28.38;;;21.63;;
19971;SDS011;10147;16.402;102.848;2022-12-22T03:48:19;27.92;;;22.30;;
19971;SDS011;10147;16.402;102.848;2022-12-22T03:50:49;29.58;;;23.13;;
19971;SDS011;10147;16.402;102.848;2022-12-22T03:53:19;47.72;;;43.15;;
19971;SDS011;10147;16.402;102.848;2022-12-22T03:55:50;28.33;;;21.58;;
19971;SDS011;10147;16.402;102.848;2022-12-22T03:58:21;25.67;;;19.42;;
19971;SDS011;10147;16.402;102.848;2022-12-22T04:00:51;24.83;;;19.77;;
19971;SDS011;10147;16.402;102.848;2022-12-22T04:03:21;24.85;;;20.30;;
19971;SDS011;10147;16.402;102.848;2022-12-22T04:05:51;25.05;;;19.95;;
19971;SDS011;10147;16.402;102.848;2022-12-22T04:08:22;26.45;;;18.83;;
19971;SDS011;10147;16.402;102.848;2022-12-22T04:10:52;22.65;;;19.02;;
19971;SDS011;10147;16.402;102.848;2022-12-22T04:13:42;21.95;;;18.38;;
19971;SDS011;10147;16.402;102.848;2022-12-22T04:16:12;22.70;;;19.08;;
19971;SDS011;10147;16.402;102.848;2022-12-22T04:18:43;27.13;;;18.80;;
19971;SDS011;10147;16.402;102.848;2022-12-22T04:21:13;23.60;;;18.80;;
19971;SDS011;10147;16.402;102.848;2022-12-22T04:23:43;25.92;;;21.08;;
19971;SDS011;10147;16.402;102.848;2022-12-22T04:26:14;24.98;;;19.80;;
19971;SDS011;10147;16.402;102.848;2022-12-22T04:28:45;26.17;;;18.55;;
19971;SDS011;10147;16.402;102.848;2022-12-22T04:31:15;26.15;;;19.08;;
19971;SDS011;10147;16.402;102.848;2022-12-22T04:33:47;22.23;;;18.65;;
19971;SDS011;10147;16.402;102.848;2022-12-22T04:36:17;22.63;;;18.25;;
19971;SDS011;10147;16.402;102.848;2022-12-22T04:38:48;22.88;;;18.52;;
19971;SDS011;10147;16.402;102.848;2022-12-22T04:41:18;22.90;;;19.58;;
19971;SDS011;10147;16.402;102.848;2022-12-22T04:43:48;23.85;;;18.98;;
19971;SDS011;10147;16.402;102.848;2022-12-22T04:46:19;31.77;;;28.50;;
19971;SDS011;10147;16.402;102.848;2022-12-22T04:48:49;35.13;;;31.70;;
19971;SDS011;10147;16.402;102.848;2022-12-22T04:51:26;21.58;;;17.25;;
19971;SDS011;10147;16.402;102.848;2022-12-22T04:53:57;21.77;;;18.77;;
19971;SDS011;10147;16.402;102.848;2022-12-22T04:56:27;22.25;;;18.55;;
19971;SDS011;10147;16.402;102.848;2022-12-22T04:58:58;23.45;;;19.00;;
19971;SDS011;10147;16.402;102.848;2022-12-22T05:01:28;29.05;;;18.98;;
19971;SDS011;10147;16.402;102.848;2022-12-22T05:03:59;22.23;;;16.85;;
19971;SDS011;10147;16.402;102.848;2022-12-22T05:06:29;23.48;;;16.73;;
19971;SDS011;10147;16.402;102.848;2022-12-22T05:08:59;20.60;;;16.33;;
19971;SDS011;10147;16.402;102.848;2022-12-22T05:11:29;19.88;;;16.10;;
19971;SDS011;10147;16.402;102.848;2022-12-22T05:14:00;23.15;;;16.70;;
19971;SDS011;10147;16.402;102.848;2022-12-22T05:16:33;22.52;;;16.52;;
19971;SDS011;10147;16.402;102.848;2022-12-22T05:19:04;23.52;;;17.70;;
19971;SDS011;10147;16.402;102.848;2022-12-22T05:21:34;22.75;;;18.48;;
19971;SDS011;10147;16.402;102.848;2022-12-22T05:24:06;20.10;;;16.98;;
19971;SDS011;10147;16.402;102.848;2022-12-22T05:26:36;19.70;;;16.70;;
19971;SDS011;10147;16.402;102.848;2022-12-22T05:29:07;20.88;;;17.27;;
19971;SDS011;10147;16.402;102.848;2022-12-22T05:31:37;19.48;;;17.38;;
19971;SDS011;10147;16.402;102.848;2022-12-22T05:34:13;19.73;;;16.83;;
19971;SDS011;10147;16.402;102.848;2022-12-22T05:36:43;23.10;;;17.52;;
19971;SDS011;10147;16.402;102.848;2022-12-22T05:39:14;22.77;;;17.52;;
19971;SDS011;10147;16.402;102.848;2022-12-22T05:41:44;25.25;;;17.67;;
19971;SDS011;10147;16.402;102.848;2022-12-22T05:44:15;34.10;;;30.60;;
19971;SDS011;10147;16.402;102.848;2022-12-22T05:46:45;21.13;;;18.17;;
19971;SDS011;10147;16.402;102.848;2022-12-22T05:49:17;23.88;;;18.13;;
19971;SDS011;10147;16.402;102.848;2022-12-22T05:51:47;22.13;;;17.63;;
19971;SDS011;10147;16.402;102.848;2022-12-22T05:54:17;24.05;;;18.55;;
19971;SDS011;10147;16.402;102.848;2022-12-22T05:56:48;25.65;;;18.15;;
19971;SDS011;10147;16.402;102.848;2022-12-22T05:59:18;21.85;;;17.13;;
19971;SDS011;10147;16.402;102.848;2022-12-22T06:01:48;22.80;;;17.85;;
19971;SDS011;10147;16.402;102.848;2022-12-22T06:04:19;24.02;;;18.00;;
19971;SDS011;10147;16.402;102.848;2022-12-22T06:06:49;21.35;;;17.88;;
19971;SDS011;10147;16.402;102.848;2022-12-22T06:09:20;23.10;;;17.88;;
19971;SDS011;10147;16.402;102.848;2022-12-22T06:11:50;22.40;;;16.17;;
19971;SDS011;10147;16.402;102.848;2022-12-22T06:14:21;23.67;;;16.95;;
19971;SDS011;10147;16.402;102.848;2022-12-22T06:16:51;21.73;;;16.35;;
19971;SDS011;10147;16.402;102.848;2022-12-22T06:19:22;19.15;;;15.30;;
19971;SDS011;10147;16.402;102.848;2022-12-22T06:21:53;21.02;;;15.93;;
19971;SDS011;10147;16.402;102.848;2022-12-22T06:24:24;19.58;;;16.35;;
19971;SDS011;10147;16.402;102.848;2022-12-22T06:26:54;19.15;;;16.58;;
19971;SDS011;10147;16.402;102.848;2022-12-22T06:29:25;18.75;;;16.73;;
19971;SDS011;10147;16.402;102.848;2022-12-22T06:31:55;19.45;;;16.30;;
19971;SDS011;10147;16.402;102.848;2022-12-22T06:34:26;19.42;;;15.80;;
19971;SDS011;10147;16.402;102.848;2022-12-22T06:36:56;18.25;;;16.27;;
19971;SDS011;10147;16.402;102.848;2022-12-22T06:39:27;19.90;;;17.67;;
19971;SDS011;10147;16.402;102.848;2022-12-22T06:41:57;20.63;;;16.15;;
19971;SDS011;10147;16.402;102.848;2022-12-22T06:44:46;21.33;;;17.20;;
19971;SDS011;10147;16.402;102.848;2022-12-22T06:47:18;23.77;;;16.13;;
19971;SDS011;10147;16.402;102.848;2022-12-22T06:49:49;22.27;;;16.42;;
19971;SDS011;10147;16.402;102.848;2022-12-22T06:52:20;17.77;;;15.88;;
19971;SDS011;10147;16.402;102.848;2022-12-22T06:54:50;22.48;;;16.92;;
19971;SDS011;10147;16.402;102.848;2022-12-22T06:57:20;20.65;;;16.83;;
19971;SDS011;10147;16.402;102.848;2022-12-22T06:59:51;20.35;;;16.50;;
19971;SDS011;10147;16.402;102.848;2022-12-22T07:02:24;21.42;;;16.75;;
19971;SDS011;10147;16.402;102.848;2022-12-22T07:04:55;21.17;;;16.75;;
19971;SDS011;10147;16.402;102.848;2022-12-22T07:07:25;19.90;;;15.63;;
19971;SDS011;10147;16.402;102.848;2022-12-22T07:09:56;20.75;;;18.52;;
19971;SDS011;10147;16.402;102.848;2022-12-22T07:12:26;20.67;;;16.75;;
19971;SDS011;10147;16.402;102.848;2022-12-22T07:14:57;18.48;;;15.68;;
19971;SDS011;10147;16.402;102.848;2022-12-22T07:17:27;24.65;;;17.02;;
19971;SDS011;10147;16.402;102.848;2022-12-22T07:19:58;21.08;;;16.95;;
19971;SDS011;10147;16.402;102.848;2022-12-22T07:22:28;19.48;;;16.05;;
19971;SDS011;10147;16.402;102.848;2022-12-22T07:24:58;22.60;;;15.70;;
19971;SDS011;10147;16.402;102.848;2022-12-22T07:27:28;19.52;;;15.70;;
19971;SDS011;10147;16.402;102.848;2022-12-22T07:29:59;21.40;;;16.00;;
19971;SDS011;10147;16.402;102.848;2022-12-22T07:32:30;19.67;;;15.68;;
19971;SDS011;10147;16.402;102.848;2022-12-22T07:35:00;19.05;;;16.95;;
19971;SDS011;10147;16.402;102.848;2022-12-22T07:37:32;24.15;;;17.73;;
19971;SDS011;10147;16.402;102.848;2022-12-22T07:40:03;23.15;;;16.75;;
19971;SDS011;10147;16.402;102.848;2022-12-22T07:42:33;23.25;;;16.58;;
19971;SDS011;10147;16.402;102.848;2022-12-22T07:45:16;20.25;;;17.08;;
19971;SDS011;10147;16.402;102.848;2022-12-22T07:47:47;19.35;;;16.15;;
19971;SDS011;10147;16.402;102.848;2022-12-22T07:50:19;22.33;;;16.30;;
19971;SDS011;10147;16.402;102.848;2022-12-22T07:53:01;21.10;;;16.27;;
19971;SDS011;10147;16.402;102.848;2022-12-22T07:55:34;21.25;;;15.75;;
19971;SDS011;10147;16.402;102.848;2022-12-22T07:58:04;20.30;;;15.73;;
19971;SDS011;10147;16.402;102.848;2022-12-22T08:00:35;25.02;;;16.67;;
19971;SDS011;10147;16.402;102.848;2022-12-22T08:03:05;19.90;;;16.23;;
19971;SDS011;10147;16.402;102.848;2022-12-22T08:05:36;20.35;;;16.38;;
19971;SDS011;10147;16.402;102.848;2022-12-22T08:08:06;21.15;;;16.73;;
19971;SDS011;10147;16.402;102.848;2022-12-22T08:10:37;22.90;;;16.83;;
19971;SDS011;10147;16.402;102.848;2022-12-22T08:13:07;24.20;;;17.67;;
19971;SDS011;10147;16.402;102.848;2022-12-22T08:15:38;22.90;;;17.40;;
19971;SDS011;10147;16.402;102.848;2022-12-22T08:18:09;21.40;;;16.40;;
19971;SDS011;10147;16.402;102.848;2022-12-22T08:20:39;23.27;;;16.48;;
19971;SDS011;10147;16.402;102.848;2022-12-22T08:23:09;23.30;;;17.08;;
19971;SDS011;10147;16.402;102.848;2022-12-22T08:25:39;22.05;;;16.58;;
19971;SDS011;10147;16.402;102.848;2022-12-22T08:28:10;24.88;;;17.27;;
19971;SDS011;10147;16.402;102.848;2022-12-22T08:30:43;25.58;;;17.67;;
19971;SDS011;10147;16.402;102.848;2022-12-22T08:33:14;28.63;;;23.13;;
19971;SDS011;10147;16.402;102.848;2022-12-22T08:35:44;24.52;;;20.48;;
19971;SDS011;10147;16.402;102.848;2022-12-22T08:38:15;18.15;;;16.17;;
19971;SDS011;10147;16.402;102.848;2022-12-22T08:40:45;20.92;;;18.50;;
19971;SDS011;10147;16.402;102.848;2022-12-22T08:43:15;24.80;;;19.20;;
19971;SDS011;10147;16.402;102.848;2022-12-22T08:45:47;27.15;;;17.02;;
19971;SDS011;10147;16.402;102.848;2022-12-22T08:48:17;21.88;;;18.85;;
19971;SDS011;10147;16.402;102.848;2022-12-22T08:50:48;23.15;;;17.52;;
19971;SDS011;10147;16.402;102.848;2022-12-22T08:53:18;18.67;;;15.98;;
19971;SDS011;10147;16.402;102.848;2022-12-22T08:56:09;24.33;;;17.05;;
19971;SDS011;10147;16.402;102.848;2022-12-22T08:58:39;21.75;;;16.80;;
19971;SDS011;10147;16.402;102.848;2022-12-22T09:01:17;21.98;;;16.65;;
19971;SDS011;10147;16.402;102.848;2022-12-22T09:03:48;27.83;;;17.15;;
19971;SDS011;10147;16.402;102.848;2022-12-22T09:06:19;25.42;;;17.95;;
19971;SDS011;10147;16.402;102.848;2022-12-22T09:08:54;29.42;;;17.70;;
19971;SDS011;10147;16.402;102.848;2022-12-22T09:11:26;21.70;;;16.45;;
19971;SDS011;10147;16.402;102.848;2022-12-22T09:13:57;23.48;;;17.25;;
19971;SDS011;10147;16.402;102.848;2022-12-22T09:16:29;22.90;;;18.45;;
19971;SDS011;10147;16.402;102.848;2022-12-22T09:19:00;21.65;;;16.42;;
19971;SDS011;10147;16.402;102.848;2022-12-22T09:21:31;27.50;;;20.55;;
19971;SDS011;10147;16.402;102.848;2022-12-22T09:24:01;27.70;;;20.17;;
19971;SDS011;10147;16.402;102.848;2022-12-22T09:26:35;22.65;;;16.67;;
19971;SDS011;10147;16.402;102.848;2022-12-22T09:29:06;22.02;;;17.67;;
19971;SDS011;10147;16.402;102.848;2022-12-22T09:31:36;22.50;;;16.95;;
19971;SDS011;10147;16.402;102.848;2022-12-22T09:34:10;23.88;;;16.33;;
19971;SDS011;10147;16.402;102.848;2022-12-22T09:36:44;22.17;;;16.98;;
19971;SDS011;10147;16.402;102.848;2022-12-22T09:39:15;21.85;;;17.88;;
19971;SDS011;10147;16.402;102.848;2022-12-22T09:41:55;22.15;;;18.45;;
19971;SDS011;10147;16.402;102.848;2022-12-22T09:44:30;26.35;;;20.55;;
19971;SDS011;10147;16.402;102.848;2022-12-22T09:47:01;27.33;;;19.08;;
19971;SDS011;10147;16.402;102.848;2022-12-22T09:49:32;27.67;;;20.33;;
19971;SDS011;10147;16.402;102.848;2022-12-22T09:52:02;26.08;;;21.00;;
19971;SDS011;10147;16.402;102.848;2022-12-22T09:54:33;28.20;;;19.05;;
19971;SDS011;10147;16.402;102.848;2022-12-22T09:57:07;27.13;;;21.83;;
19971;SDS011;10147;16.402;102.848;2022-12-22T09:59:40;32.67;;;27.00;;
19971;SDS011;10147;16.402;102.848;2022-12-22T10:02:22;37.17;;;30.10;;
19971;SDS011;10147;16.402;102.848;2022-12-22T10:07:43;31.08;;;22.23;;
19971;SDS011;10147;16.402;102.848;2022-12-22T10:10:22;26.40;;;21.20;;
19971;SDS011;10147;16.402;102.848;2022-12-22T10:12:57;29.15;;;22.20;;
19971;SDS011;10147;16.402;102.848;2022-12-22T10:15:36;33.53;;;21.05;;
19971;SDS011;10147;16.402;102.848;2022-12-22T10:18:08;31.77;;;21.80;;
19971;SDS011;10147;16.402;102.848;2022-12-22T10:20:40;28.25;;;21.15;;
19971;SDS011;10147;16.402;102.848;2022-12-22T10:23:17;26.55;;;21.80;;
19971;SDS011;10147;16.402;102.848;2022-12-22T10:31:55;33.92;;;25.77;;
19971;SDS011;10147;16.402;102.848;2022-12-22T10:34:26;32.53;;;26.55;;
19971;SDS011;10147;16.402;102.848;2022-12-22T10:37:00;41.03;;;31.58;;
19971;SDS011;10147;16.402;102.848;2022-12-22T10:39:32;47.00;;;37.35;;
19971;SDS011;10147;16.402;102.848;2022-12-22T10:42:09;46.75;;;34.10;;
19971;SDS011;10147;16.402;102.848;2022-12-22T10:44:43;50.60;;;37.20;;
19971;SDS011;10147;16.402;102.848;2022-12-22T10:47:15;55.30;;;42.45;;
19971;SDS011;10147;16.402;102.848;2022-12-22T10:49:55;50.17;;;34.63;;
19971;SDS011;10147;16.402;102.848;2022-12-22T10:52:26;48.28;;;33.75;;
19971;SDS011;10147;16.402;102.848;2022-12-22T10:57:49;72.35;;;58.03;;
19971;SDS011;10147;16.402;102.848;2022-12-22T11:00:24;67.32;;;47.58;;
19971;SDS011;10147;16.402;102.848;2022-12-22T11:02:55;62.05;;;45.17;;
19971;SDS011;10147;16.402;102.848;2022-12-22T11:05:27;59.42;;;40.55;;
19971;SDS011;10147;16.402;102.848;2022-12-22T11:08:06;54.00;;;35.97;;
19971;SDS011;10147;16.402;102.848;2022-12-22T11:10:42;55.33;;;34.55;;
19971;SDS011;10147;16.402;102.848;2022-12-22T11:21:57;38.13;;;29.90;;
19971;SDS011;10147;16.402;102.848;2022-12-22T11:24:34;67.95;;;35.83;;
19971;SDS011;10147;16.402;102.848;2022-12-22T11:27:22;81.30;;;43.92;;
19971;SDS011;10147;16.402;102.848;2022-12-22T11:33:05;70.07;;;43.90;;
19971;SDS011;10147;16.402;102.848;2022-12-22T11:38:39;71.18;;;39.03;;
19971;SDS011;10147;16.402;102.848;2022-12-22T11:41:18;66.07;;;39.72;;
19971;SDS011;10147;16.402;102.848;2022-12-22T11:46:44;62.20;;;40.28;;
19971;SDS011;10147;16.402;102.848;2022-12-22T11:49:23;68.32;;;40.00;;
19971;SDS011;10147;16.402;102.848;2022-12-22T12:00:26;60.75;;;34.50;;
19971;SDS011;10147;16.402;102.848;2022-12-22T12:03:24;57.30;;;35.28;;
19971;SDS011;10147;16.402;102.848;2022-12-22T12:11:49;54.13;;;33.75;;
19971;SDS011;10147;16.402;102.848;2022-12-22T12:28:45;92.55;;;63.42;;
19971;SDS011;10147;16.402;102.848;2022-12-22T12:31:20;62.40;;;41.70;;
19971;SDS011;10147;16.402;102.848;2022-12-22T12:33:53;64.07;;;43.55;;
19971;SDS011;10147;16.402;102.848;2022-12-22T12:36:42;58.25;;;39.90;;
19971;SDS011;10147;16.402;102.848;2022-12-22T12:39:21;60.80;;;37.92;;
19971;SDS011;10147;16.402;102.848;2022-12-22T12:44:43;56.88;;;39.22;;
19971;SDS011;10147;16.402;102.848;2022-12-22T12:50:28;69.82;;;46.10;;
19971;SDS011;10147;16.402;102.848;2022-12-22T12:53:03;73.05;;;46.42;;
19971;SDS011;10147;16.402;102.848;2022-12-22T13:04:06;117.03;;;60.70;;
19971;SDS011;10147;16.402;102.848;2022-12-22T13:06:51;106.57;;;60.45;;
19971;SDS011;10147;16.402;102.848;2022-12-22T13:09:23;118.70;;;62.13;;
19971;SDS011;10147;16.402;102.848;2022-12-22T13:15:25;121.07;;;61.80;;
19971;SDS011;10147;16.402;102.848;2022-12-22T13:17:56;106.22;;;63.05;;
19971;SDS011;10147;16.402;102.848;2022-12-22T13:20:31;101.40;;;57.35;;
19971;SDS011;10147;16.402;102.848;2022-12-22T13:23:02;109.00;;;57.90;;
19971;SDS011;10147;16.402;102.848;2022-12-22T13:28:23;395.67;;;314.67;;
19971;SDS011;10147;16.402;102.848;2022-12-22T13:31:05;103.63;;;72.28;;
19971;SDS011;10147;16.402;102.848;2022-12-22T13:33:37;99.68;;;56.83;;
19971;SDS011;10147;16.402;102.848;2022-12-22T13:36:18;95.13;;;53.78;;
19971;SDS011;10147;16.402;102.848;2022-12-22T13:39:00;85.10;;;52.60;;
19971;SDS011;10147;16.402;102.848;2022-12-22T13:41:31;88.35;;;52.20;;
19971;SDS011;10147;16.402;102.848;2022-12-22T13:44:03;87.63;;;52.50;;
19971;SDS011;10147;16.402;102.848;2022-12-22T13:46:35;88.15;;;53.22;;
19971;SDS011;10147;16.402;102.848;2022-12-22T13:49:06;86.60;;;51.17;;
19971;SDS011;10147;16.402;102.848;2022-12-22T13:51:38;77.05;;;48.38;;
19971;SDS011;10147;16.402;102.848;2022-12-22T13:54:16;70.57;;;47.45;;
19971;SDS011;10147;16.402;102.848;2022-12-22T13:56:54;75.82;;;49.75;;
19971;SDS011;10147;16.402;102.848;2022-12-22T13:59:27;80.85;;;49.95;;
19971;SDS011;10147;16.402;102.848;2022-12-22T14:01:59;70.45;;;47.47;;
19971;SDS011;10147;16.402;102.848;2022-12-22T14:04:30;73.80;;;49.13;;
19971;SDS011;10147;16.402;102.848;2022-12-22T14:09:53;73.70;;;48.10;;
19971;SDS011;10147;16.402;102.848;2022-12-22T14:12:25;85.63;;;51.67;;
19971;SDS011;10147;16.402;102.848;2022-12-22T14:14:57;96.82;;;56.15;;
19971;SDS011;10147;16.402;102.848;2022-12-22T14:17:31;102.75;;;58.95;;
19971;SDS011;10147;16.402;102.848;2022-12-22T14:20:16;105.50;;;63.03;;
19971;SDS011;10147;16.402;102.848;2022-12-22T14:22:51;103.90;;;62.78;;
19971;SDS011;10147;16.402;102.848;2022-12-22T14:25:28;109.43;;;63.17;;
19971;SDS011;10147;16.402;102.848;2022-12-22T14:28:00;98.15;;;59.28;;
19971;SDS011;10147;16.402;102.848;2022-12-22T14:30:37;105.30;;;58.33;;
19971;SDS011;10147;16.402;102.848;2022-12-22T14:38:58;313.13;;;161.85;;
19971;SDS011;10147;16.402;102.848;2022-12-22T14:41:40;291.00;;;153.10;;
19971;SDS011;10147;16.402;102.848;2022-12-22T14:44:24;359.27;;;191.73;;
19971;SDS011;10147;16.402;102.848;2022-12-22T14:49:49;245.25;;;138.18;;
19971;SDS011;10147;16.402;102.848;2022-12-22T14:52:34;258.48;;;141.15;;
19971;SDS011;10147;16.402;102.848;2022-12-22T14:55:20;215.50;;;122.63;;
19971;SDS011;10147;16.402;102.848;2022-12-22T14:57:59;181.40;;;106.15;;
19971;SDS011;10147;16.402;102.848;2022-12-22T15:00:35;209.88;;;123.93;;
19971;SDS011;10147;16.402;102.848;2022-12-22T15:06:20;242.32;;;139.18;;
19971;SDS011;10147;16.402;102.848;2022-12-22T15:08:48;226.02;;;129.75;;
19971;SDS011;10147;16.402;102.848;2022-12-22T15:11:21;188.95;;;112.10;;
19971;SDS011;10147;16.402;102.848;2022-12-22T15:13:53;183.57;;;109.07;;
19971;SDS011;10147;16.402;102.848;2022-12-22T15:16:23;189.80;;;112.55;;
19971;SDS011;10147;16.402;102.848;2022-12-22T15:18:54;178.77;;;108.03;;
19971;SDS011;10147;16.402;102.848;2022-12-22T15:21:24;164.82;;;98.63;;
19971;SDS011;10147;16.402;102.848;2022-12-22T15:23:55;153.80;;;91.55;;
19971;SDS011;10147;16.402;102.848;2022-12-22T15:26:25;147.85;;;88.82;;
19971;SDS011;10147;16.402;102.848;2022-12-22T15:29:03;135.70;;;84.30;;
19971;SDS011;10147;16.402;102.848;2022-12-22T15:31:34;136.10;;;80.88;;
19971;SDS011;10147;16.402;102.848;2022-12-22T15:34:09;129.32;;;82.55;;
19971;SDS011;10147;16.402;102.848;2022-12-22T15:36:40;148.15;;;88.05;;
19971;SDS011;10147;16.402;102.848;2022-12-22T15:39:11;143.70;;;89.10;;
19971;SDS011;10147;16.402;102.848;2022-12-22T15:41:42;145.23;;;86.45;;
19971;SDS011;10147;16.402;102.848;2022-12-22T15:44:13;150.77;;;92.22;;
19971;SDS011;10147;16.402;102.848;2022-12-22T15:46:44;143.68;;;94.10;;
19971;SDS011;10147;16.402;102.848;2022-12-22T15:49:18;149.57;;;90.25;;
19971;SDS011;10147;16.402;102.848;2022-12-22T15:51:50;145.57;;;89.03;;
19971;SDS011;10147;16.402;102.848;2022-12-22T15:54:20;130.98;;;84.63;;
19971;SDS011;10147;16.402;102.848;2022-12-22T15:56:51;109.30;;;71.90;;
19971;SDS011;10147;16.402;102.848;2022-12-22T15:59:23;95.97;;;63.05;;
19971;SDS011;10147;16.402;102.848;2022-12-22T16:01:54;82.78;;;54.00;;
19971;SDS011;10147;16.402;102.848;2022-12-22T16:04:28;75.25;;;53.70;;
19971;SDS011;10147;16.402;102.848;2022-12-22T16:06:58;77.25;;;54.15;;
19971;SDS011;10147;16.402;102.848;2022-12-22T16:09:31;84.57;;;56.03;;
19971;SDS011;10147;16.402;102.848;2022-12-22T16:12:12;102.38;;;63.63;;
19971;SDS011;10147;16.402;102.848;2022-12-22T16:14:45;105.22;;;62.65;;
19971;SDS011;10147;16.402;102.848;2022-12-22T16:17:18;100.70;;;67.18;;
19971;SDS011;10147;16.402;102.848;2022-12-22T16:19:48;98.35;;;66.88;;
19971;SDS011;10147;16.402;102.848;2022-12-22T16:22:20;105.40;;;69.95;;
19971;SDS011;10147;16.402;102.848;2022-12-22T16:24:55;107.30;;;69.65;;
19971;SDS011;10147;16.402;102.848;2022-12-22T16:27:26;107.95;;;72.25;;
19971;SDS011;10147;16.402;102.848;2022-12-22T16:29:57;105.72;;;70.65;;
19971;SDS011;10147;16.402;102.848;2022-12-22T16:32:28;111.53;;;74.18;;
19971;SDS011;10147;16.402;102.848;2022-12-22T16:35:12;107.35;;;73.07;;
19971;SDS011;10147;16.402;102.848;2022-12-22T16:37:43;99.57;;;68.93;;
19971;SDS011;10147;16.402;102.848;2022-12-22T16:40:14;103.45;;;69.65;;